createdAt,value
2022-11-26T00:04:55.829Z,11.90
2022-11-26T00:09:59.392Z,13.00
2022-11-26T00:15:31.181Z,13.82
2022-11-26T00:20:33.490Z,9.82
2022-11-26T00:25:44.762Z,7.78
2022-11-26T00:30:46.981Z,8.85
2022-11-26T00:35:52.619Z,10.73
2022-11-26T00:40:55.218Z,7.88
2022-11-26T00:45:57.500Z,8.82
2022-11-26T00:50:59.728Z,8.38
2022-11-26T00:56:01.941Z,8.23
2022-11-26T01:01:04.230Z,8.15
2022-11-26T01:06:06.648Z,7.85
2022-11-26T01:11:14.570Z,6.40
2022-11-26T01:16:24.451Z,7.38
2022-11-26T01:21:28.785Z,8.75
2022-11-26T01:26:43.014Z,10.90
2022-11-26T01:31:46.084Z,9.88
2022-11-26T01:36:48.390Z,11.65
2022-11-26T01:42:16.607Z,11.15
2022-11-26T01:47:30.258Z,9.38
2022-11-26T01:52:32.911Z,8.77
2022-11-26T01:57:38.649Z,6.22
2022-11-26T02:02:41.797Z,6.93
2022-11-26T02:07:45.158Z,10.27
2022-11-26T02:12:47.964Z,6.97
2022-11-26T02:17:57.991Z,8.50
2022-11-26T02:23:22.221Z,4.35
2022-11-26T02:28:37.559Z,5.40
2022-11-26T02:33:54.993Z,6.70
2022-11-26T02:38:57.238Z,4.68
2022-11-26T02:43:59.518Z,7.70
2022-11-26T02:49:03.086Z,5.15
2022-11-26T02:54:07.068Z,4.95
2022-11-26T02:59:09.427Z,4.80
2022-11-26T03:04:19.593Z,4.97
2022-11-26T03:09:23.296Z,5.30
2022-11-26T03:14:25.514Z,9.55
2022-11-26T03:19:27.722Z,4.43
2022-11-26T03:24:30.769Z,6.68
2022-11-26T03:29:33.678Z,4.40
2022-11-26T03:34:36.121Z,9.85
2022-11-26T03:39:38.613Z,4.93
2022-11-26T03:44:40.917Z,5.45
2022-11-26T03:49:43.262Z,4.80
2022-11-26T03:54:45.425Z,4.35
2022-11-26T03:59:47.618Z,2.55
2022-11-26T04:04:49.933Z,4.07
2022-11-26T04:09:52.102Z,4.32
2022-11-26T04:14:54.302Z,6.78
2022-11-26T04:19:56.460Z,5.28
2022-11-26T04:24:58.663Z,6.57
2022-11-26T04:30:01.034Z,6.07
2022-11-26T04:35:03.505Z,7.78
2022-11-26T04:40:06.732Z,5.97
2022-11-26T04:45:10.315Z,4.93
2022-11-26T04:50:12.933Z,3.33
2022-11-26T04:55:16.633Z,4.63
2022-11-26T05:00:19.356Z,3.03
2022-11-26T05:05:21.545Z,4.75
2022-11-26T05:10:23.741Z,6.05
2022-11-26T05:15:26.006Z,5.25
2022-11-26T05:20:28.222Z,6.72
2022-11-26T05:25:30.497Z,7.47
2022-11-26T05:30:33.071Z,4.07
2022-11-26T05:35:37.454Z,5.05
2022-11-26T05:40:39.634Z,7.75
2022-11-26T05:45:41.891Z,4.47
2022-11-26T05:50:44.160Z,9.57
2022-11-26T05:55:46.368Z,5.00
2022-11-26T06:00:48.646Z,4.50
2022-11-26T06:05:51.168Z,6.00
2022-11-26T06:10:53.821Z,8.75
2022-11-26T06:15:56.050Z,5.65
2022-11-26T06:21:02.676Z,4.65
2022-11-26T06:26:10.263Z,5.57
2022-11-26T06:31:12.578Z,5.88
2022-11-26T06:36:14.909Z,9.57
2022-11-26T06:41:17.183Z,8.57
2022-11-26T06:46:19.499Z,7.70
2022-11-26T06:51:22.090Z,5.75
2022-11-26T06:56:24.556Z,6.47
2022-11-26T07:01:27.278Z,6.40
2022-11-26T07:06:31.925Z,4.78
2022-11-26T07:11:35.016Z,5.20
2022-11-26T07:16:37.318Z,5.88
2022-11-26T07:21:39.500Z,8.02
2022-11-26T07:26:42.144Z,7.38
2022-11-26T07:31:44.517Z,5.18
2022-11-26T07:36:46.708Z,5.10
2022-11-26T07:41:48.916Z,14.80
2022-11-26T07:46:51.221Z,10.07
2022-11-26T07:51:53.456Z,11.35
2022-11-26T07:56:56.841Z,9.75
2022-11-26T08:01:59.143Z,10.55
2022-11-26T08:07:01.894Z,9.10
2022-11-26T08:12:04.336Z,6.97
2022-11-26T08:17:06.559Z,5.60
2022-11-26T08:22:08.798Z,10.25
2022-11-26T08:27:11.148Z,7.25
2022-11-26T08:32:13.523Z,12.35
2022-11-26T08:37:15.759Z,9.50
2022-11-26T08:42:18.549Z,7.88
2022-11-26T08:47:21.156Z,12.25
2022-11-26T08:52:23.631Z,9.23
2022-11-26T08:57:25.823Z,9.85
2022-11-26T09:02:28.159Z,10.82
2022-11-26T09:07:30.351Z,8.27
2022-11-26T09:12:32.537Z,15.57
2022-11-26T09:17:34.892Z,10.68
2022-11-26T09:22:37.219Z,9.90
2022-11-26T09:27:39.408Z,8.10
2022-11-26T09:32:41.665Z,9.13
2022-11-26T09:37:48.672Z,7.15
2022-11-26T09:43:02.806Z,9.90
2022-11-26T09:48:09.463Z,11.35
2022-11-26T09:53:32.616Z,8.13
2022-11-26T09:58:45.496Z,13.63
2022-11-26T10:03:48.045Z,10.13
2022-11-26T10:09:27.001Z,13.20
2022-11-26T10:14:50.262Z,25.98
2022-11-26T10:20:29.606Z,9.52
2022-11-26T10:25:39.550Z,10.48
2022-11-26T10:30:42.148Z,9.52
2022-11-26T10:35:46.197Z,8.77
2022-11-26T10:40:48.357Z,12.25
2022-11-26T10:45:56.081Z,9.25
2022-11-26T10:51:04.204Z,7.50
2022-11-26T10:56:07.683Z,15.02
2022-11-26T11:01:10.339Z,13.43
2022-11-26T11:06:27.955Z,8.50
2022-11-26T11:11:31.463Z,12.88
2022-11-26T11:16:43.401Z,7.57
2022-11-26T11:21:48.297Z,8.75
2022-11-26T11:26:53.593Z,11.53
2022-11-26T11:31:57.790Z,14.70
2022-11-26T11:37:14.740Z,18.65
2022-11-26T11:42:28.327Z,16.42
2022-11-26T11:47:42.591Z,11.90
2022-11-26T11:52:57.384Z,10.95
2022-11-26T11:58:05.577Z,13.13
2022-11-26T12:03:24.231Z,13.38
2022-11-26T12:08:42.776Z,12.15
2022-11-26T12:13:57.244Z,16.05
2022-11-26T12:19:04.545Z,11.25
2022-11-26T12:24:28.716Z,12.40
2022-11-26T12:29:47.238Z,11.82
2022-11-26T12:34:52.833Z,12.48
2022-11-26T12:40:07.136Z,10.85
2022-11-26T12:45:35.027Z,9.88
2022-11-26T12:50:48.288Z,15.88
2022-11-26T12:56:19.439Z,13.77
2022-11-26T13:01:24.298Z,11.40
2022-11-26T13:06:54.449Z,9.87
2022-11-26T13:12:12.152Z,7.28
2022-11-26T13:17:18.151Z,11.77
2022-11-26T13:28:06.400Z,10.00
2022-11-26T13:33:33.252Z,15.18
2022-11-26T13:39:03.484Z,14.90
2022-11-26T13:44:22.640Z,20.35
2022-11-26T13:49:44.150Z,15.52
2022-11-26T13:55:18.765Z,14.68
2022-11-26T14:00:30.799Z,16.25
2022-11-26T14:05:51.221Z,10.32
2022-11-26T14:10:53.397Z,10.68
2022-11-26T14:16:01.750Z,11.60
2022-11-26T14:21:06.664Z,9.00
2022-11-26T14:26:11.775Z,14.97
2022-11-26T14:31:26.397Z,14.30
2022-11-26T14:36:30.284Z,10.68
2022-11-26T14:41:41.654Z,10.60
2022-11-26T14:46:47.112Z,15.60
2022-11-26T14:51:50.311Z,9.32
2022-11-26T14:56:52.480Z,9.77
2022-11-26T15:01:54.742Z,13.98
2022-11-26T15:06:58.589Z,15.15
2022-11-26T15:12:12.159Z,11.07
2022-11-26T15:17:17.461Z,14.50
2022-11-26T15:22:19.774Z,10.75
2022-11-26T15:27:28.872Z,19.60
2022-11-26T15:32:33.576Z,14.18
2022-11-26T15:37:35.805Z,15.70
2022-11-26T15:42:39.495Z,15.23
2022-11-26T15:47:48.054Z,12.68
2022-11-26T15:52:50.247Z,17.80
2022-11-26T15:57:52.940Z,17.33
2022-11-26T16:02:55.176Z,10.48
2022-11-26T16:08:19.787Z,9.98
2022-11-26T16:13:26.317Z,10.43
2022-11-26T16:18:39.302Z,11.88
2022-11-26T16:23:42.251Z,9.38
2022-11-26T16:28:45.846Z,13.70
2022-11-26T16:33:48.117Z,10.70
2022-11-26T16:38:51.288Z,11.20
2022-11-26T16:43:53.606Z,8.15
2022-11-26T16:48:55.977Z,11.18
2022-11-26T16:53:58.238Z,11.13
2022-11-26T16:59:00.563Z,9.13
2022-11-26T17:04:02.871Z,10.65
2022-11-26T17:09:05.097Z,10.20
2022-11-26T17:14:10.712Z,8.48
2022-11-26T17:19:15.202Z,9.25
2022-11-26T17:24:20.693Z,13.70
2022-11-26T17:29:25.256Z,8.55
2022-11-26T17:34:27.513Z,8.63
2022-11-26T17:39:29.762Z,7.43
2022-11-26T17:44:32.024Z,5.70
2022-11-26T17:49:34.218Z,6.28
2022-11-26T17:54:36.347Z,8.35
2022-11-26T17:59:38.866Z,7.13
2022-11-26T18:04:41.346Z,7.25
2022-11-26T18:09:44.009Z,6.65
2022-11-26T18:14:46.216Z,7.15
2022-11-26T18:19:48.874Z,4.85
2022-11-26T18:24:56.942Z,5.78
2022-11-26T18:30:00.377Z,10.10
2022-11-26T18:35:02.969Z,8.45
2022-11-26T18:40:07.770Z,7.85
2022-11-26T18:45:14.462Z,8.75
2022-11-26T18:50:16.692Z,7.80
2022-11-26T18:55:18.918Z,4.10
2022-11-26T19:00:21.415Z,5.97
2022-11-26T19:05:23.597Z,4.55
2022-11-26T19:10:26.845Z,3.53
2022-11-26T19:15:29.592Z,3.83
2022-11-26T19:20:31.725Z,2.90
2022-11-26T19:25:34.036Z,4.88
2022-11-26T19:30:36.335Z,3.17
2022-11-26T19:35:39.694Z,4.90
2022-11-26T19:40:41.843Z,5.30
2022-11-26T19:45:44.091Z,9.43
2022-11-26T19:50:55.212Z,5.75
2022-11-26T19:56:00.122Z,3.15
2022-11-26T20:01:05.757Z,3.45
2022-11-26T20:06:21.759Z,4.20
2022-11-26T20:11:24.351Z,6.10
2022-11-26T20:16:30.932Z,3.08
2022-11-26T20:21:34.002Z,4.72
2022-11-26T20:26:38.693Z,3.17
2022-11-26T20:31:45.929Z,3.95
2022-11-26T20:36:48.535Z,4.35
2022-11-26T20:41:51.173Z,3.28
2022-11-26T20:46:53.416Z,2.03
2022-11-26T20:51:55.610Z,4.28
2022-11-26T20:56:57.957Z,2.40
2022-11-26T21:02:00.110Z,3.58
2022-11-26T21:07:02.351Z,1.77
2022-11-26T21:12:04.733Z,3.25
2022-11-26T21:17:07.156Z,1.00
2022-11-26T21:22:09.503Z,1.30
2022-11-26T21:27:11.657Z,1.75
2022-11-26T21:32:13.839Z,0.60
2022-11-26T21:37:16.079Z,0.98
2022-11-26T21:42:18.284Z,2.72
2022-11-26T21:47:20.467Z,3.38
2022-11-26T21:52:22.650Z,1.48
2022-11-26T21:57:24.790Z,1.17
2022-11-26T22:02:27.145Z,1.92
2022-11-26T22:07:30.277Z,2.22
2022-11-26T22:12:32.866Z,0.60
2022-11-26T22:17:35.057Z,0.40
2022-11-26T22:22:37.163Z,0.50
2022-11-26T22:27:39.391Z,0.52
2022-11-26T22:32:41.488Z,0.40
2022-11-26T22:37:43.621Z,0.90
2022-11-26T22:42:45.737Z,1.60
2022-11-26T22:47:52.560Z,0.50
2022-11-26T22:52:55.058Z,1.20
2022-11-26T22:57:57.300Z,0.77
2022-11-26T23:02:59.610Z,0.75
2022-11-26T23:08:01.885Z,0.93
2022-11-26T23:13:05.527Z,0.90
2022-11-26T23:18:09.778Z,0.50
2022-11-26T23:23:13.329Z,0.50
2022-11-26T23:28:15.460Z,0.50
2022-11-26T23:33:17.611Z,1.92
2022-11-26T23:38:19.798Z,0.40
2022-11-26T23:43:22.493Z,0.50
2022-11-26T23:48:24.605Z,0.40
2022-11-26T23:53:27.295Z,0.25
2022-11-26T23:58:29.962Z,2.08
